Flight Track Log - Related Links

Times and Time Zones

All times are in EST time to prevent confusion due to time zone crossing. See the AMF1032 flight status page for this flight to view local times or setup timezone preferences in your user account.

Time Position Orientation Groundspeed Altitude Reporting Facility
EST Latitude Longitude Course Direction KTS MPH feet Rate Location/Type
Tue 09:14:28 AM 45.8786 -88.2292 291° West 146 168 5,800  Level Minneapolis Center
Tue 09:15:30 AM 45.8967 -88.2836 295° West 150 173 7,500 1,742 Climbing Minneapolis Center
Tue 09:16:32 AM 45.9142 -88.3347 296° West 144 166 9,400 1,610 Climbing Minneapolis Center
Tue 09:17:33 AM 45.9336 -88.3864 298° West 145 167 10,800 1,268 Climbing Minneapolis Center
Tue 09:18:35 AM 45.9539 -88.4414 298° West 153 176 12,000 581 Climbing Minneapolis Center
Tue 09:19:37 AM 45.9778 -88.5117 296° West 191 220 12,000 48 Level Minneapolis Center
Tue 09:20:39 AM 46.0067 -88.5836 300° West 207 238 12,100  Climbing Minneapolis Center
Tue 09:21:40 AM 46.0339 -88.6611 297° West 215 247 12,000  Descending Minneapolis Center
Tue 09:22:42 AM 46.0658 -88.7539 296° West 216 249 12,100 48 Climbing Minneapolis Center
Tue 09:23:44 AM 46.0919 -88.8303 296° West 214 246 12,100 -48 Level Minneapolis Center
Tue 09:24:46 AM 46.1167 -88.9081 295° West 215 247 12,000  Descending Minneapolis Center
Tue 09:25:47 AM 46.1436 -88.9836 297° West 213 245 12,100 49 Climbing Minneapolis Center
Tue 09:26:49 AM 46.1722 -89.0558 300° West 209 241 12,100  Level Minneapolis Center
Tue 09:27:51 AM 46.1947 -89.1331 293° West 210 242 12,100 -339 Level Minneapolis Center
Tue 09:28:53 AM 46.2228 -89.2322 292° West 228 262 11,400 -829 Descending Minneapolis Center
Tue 09:29:54 AM 46.2528 -89.3192 297° West 243 280 10,400 -976 Descending Minneapolis Center
Tue 09:30:56 AM 46.2850 -89.4025 299° West 241 277 9,400 -919 Descending Minneapolis Center
Tue 09:31:58 AM 46.3156 -89.4869 298° West 238 274 8,500 -1,024 Descending Minneapolis Center
Tue 09:32:59 AM 46.3483 -89.5697 300° West 237 273 7,300 -1,220 Descending Minneapolis Center
Tue 09:34:01 AM 46.3844 -89.6481 304° West 237 273 6,000 -1,366 Descending Minneapolis Center
Tue 09:35:02 AM 46.4239 -89.7439 301° West 234 269 4,500 -1,171 Descending Minneapolis Center
Tue 09:36:04 AM 46.4567 -89.8219 301° West 230 265 3,600 -726 Descending Minneapolis Center
Tue 09:37:06 AM 46.4889 -89.8883 305° West 218 251 3,000 -390 Descending Minneapolis Center
Tue 09:38:07 AM 46.5153 -89.9531 301° West 201 231 2,800 -146 Descending Minneapolis Center
Tue 09:39:09 AM 46.5311 -90.0133 291° West 178 205 2,700 -293 Descending Minneapolis Center
Tue 09:40:10 AM 46.5300 -90.0708 268° West 156 180 2,200 -492 Descending Minneapolis Center

Login

Don't have an account? Register now (free) for customized features, flight alerts, and more!